Time;durP1;ratioP1;P1;durP2;ratioP2;P2;SDS_P1;SDS_P2;PMS_P1;PMS_P2;Temp;Humidity;BMP_temperature;BMP_pressure;BME280_temperature;BME280_humidity;BME280_pressure;Samples;Min_cycle;Max_cycle;Signal;HPM_P1;HPM_P2
2023/06/16 00:01:57;;;;;;;;;;;;;;;;;;5041791;28;4650;-53
2023/06/16 00:04:25;;;;;;;;;;;;;;;;;;5044302;28;5001;-52
2023/06/16 00:06:52;;;;;;;;;;;;;;;;;;5044388;28;4882;-52
2023/06/16 00:09:21;;;;;;;;;;;;;;;;;;5038077;28;4476;-50
2023/06/16 00:11:47;;;;;;;;;;;;;;;;;;5032216;28;3038;-49
2023/06/16 00:14:12;;;;;;;;;;;;;;;;;;5038920;28;4927;-53
2023/06/16 00:16:38;;;;;;;;;;;;;;;;;;5039143;28;4561;-53
2023/06/16 00:19:03;;;;;;;;;;;;;;;;;;5037848;28;4801;-50
2023/06/16 00:21:29;;;;;;;;;;;;;;;;;;5037522;28;4996;-51
2023/06/16 00:23:55;;;;;;;;;;;;;;;;;;5034351;28;4983;-53
2023/06/16 00:26:20;;;;;;;;;;;;;;;;;;5045202;28;1014;-50
2023/06/16 00:28:45;;;;;;;;;;;;;;;;;;5032297;28;4681;-52
2023/06/16 00:31:11;;;;;;;;;;;;;;;;;;5035457;28;4621;-48
2023/06/16 00:33:36;;;;;;;;;;;;;;;;;;5034073;28;5161;-49
2023/06/16 00:36:01;;;;;;;;;;;;;;;;;;5033574;28;4453;-52
2023/06/16 00:38:27;;;;;;;;;;;;;;;;;;5041372;28;2001;-53
2023/06/16 00:40:52;;;;;;;;;;;;;;;;;;5046031;28;5172;-51
2023/06/16 00:43:18;;;;;;;;;;;;;;;;;;5041831;28;4480;-50
2023/06/16 00:45:43;;;;;;;;;;;;;;;;;;5039596;28;5126;-50
2023/06/16 00:48:08;;;;;;;;;;;;;;;;;;5037613;28;4478;-52
2023/06/16 00:50:33;;;;;;;;;;;;;;;;;;5063221;28;1133;-52
2023/06/16 00:52:59;;;;;;;;;;;;;;;;;;5043126;28;4424;-54
2023/06/16 00:55:24;;;;;;;;;;;;;;;;;;5040020;28;5008;-50
2023/06/16 00:57:50;;;;;;;;;;;;;;;;;;5040316;28;5211;-53
2023/06/16 01:00:16;;;;;;;;;;;;;;;;;;5037240;28;4644;-53
2023/06/16 01:02:44;;;;;;;;;;;;;;;;;;5056285;28;1430;-50
2023/06/16 01:05:09;;;;;;;;;;;;;;;;;;5044580;28;4387;-52
2023/06/16 01:07:39;;;;;;;;;;;;;;;;;;5040540;28;4471;-52
2023/06/16 01:10:16;;;;;;;;;;;;;;;;;;5041783;28;4961;-54
2023/06/16 01:12:41;;;;;;;;;;;;;;;;;;5042640;28;4875;-52
2023/06/16 01:15:09;;;;;;;;;;;;;;;;;;5044084;28;4452;-51
2023/06/16 01:17:35;;;;;;;;;;;;;;;;;;5039953;28;4575;-52
2023/06/16 01:20:07;;;;;;;;;;;;;;;;;;5039659;28;4436;-51
2023/06/16 01:22:44;;;;;;;;;;;;;;;;;;5046079;28;4777;-49
2023/06/16 01:25:10;;;;;;;;;;;;;;;;;;5044267;28;4863;-51
2023/06/16 01:27:39;;;;;;;;;;;;;;;;;;5042499;28;4440;-52
2023/06/16 01:30:04;;;;;;;;;;;;;;;;;;5040265;28;4652;-52
2023/06/16 01:32:29;;;;;;;;;;;;;;;;;;5046032;28;1094;-49
2023/06/16 01:34:55;;;;;;;;;;;;;;;;;;5036776;28;4952;-52
2023/06/16 01:37:20;;;;;;;;;;;;;;;;;;5039677;28;5469;-51
2023/06/16 01:39:46;;;;;;;;;;;;;;;;;;5058441;28;4688;-51
2023/06/16 01:42:11;;;;;;;;;;;;;;;;;;5041281;28;4501;-51
2023/06/16 01:44:36;;;;;;;;;;;;;;;;;;5053680;28;1526;-51
2023/06/16 01:47:02;;;;;;;;;;;;;;;;;;5047015;28;4440;-52
2023/06/16 01:49:27;;;;;;;;;;;;;;;;;;5042675;28;5108;-52
2023/06/16 01:51:52;;;;;;;;;;;;;;;;;;5039867;28;4659;-52
2023/06/16 01:54:17;;;;;;;;;;;;;;;;;;5040889;28;4698;-50
2023/06/16 01:56:43;;;;;;;;;;;;;;;;;;5043992;28;1910;-52
2023/06/16 01:59:08;;;;;;;;;;;;;;;;;;5042277;28;5217;-53
2023/06/16 02:01:35;;;;;;;;;;;;;;;;;;5039524;28;4857;-52
2023/06/16 02:04:08;;;;;;;;;;;;;;;;;;5040348;28;4497;-49
2023/06/16 02:06:37;;;;;;;;;;;;;;;;;;5049576;28;5022;-50
2023/06/16 02:09:02;;;;;;;;;;;;;;;;;;5036001;28;4712;-51
2023/06/16 02:11:28;;;;;;;;;;;;;;;;;;5041952;28;1360;-49
2023/06/16 02:13:53;;;;;;;;;;;;;;;;;;5022191;28;4640;-51
2023/06/16 02:16:19;;;;;;;;;;;;;;;;;;5044414;28;4688;-48
2023/06/16 02:18:44;;;;;;;;;;;;;;;;;;5036372;28;4611;-51
2023/06/16 02:21:09;;;;;;;;;;;;;;;;;;5040930;28;5106;-53
2023/06/16 02:23:35;;;;;;;;;;;;;;;;;;5044743;28;1111;-49
2023/06/16 02:26:00;;;;;;;;;;;;;;;;;;5040295;28;4487;-52
2023/06/16 02:28:25;;;;;;;;;;;;;;;;;;5042252;28;4558;-51
2023/06/16 02:30:50;;;;;;;;;;;;;;;;;;5040020;28;4442;-49
2023/06/16 02:33:16;;;;;;;;;;;;;;;;;;5041876;28;4599;-53
2023/06/16 02:35:41;;;;;;;;;;;;;;;;;;5038123;28;1571;-52
2023/06/16 02:38:07;;;;;;;;;;;;;;;;;;5052175;28;4979;-53
2023/06/16 02:40:32;;;;;;;;;;;;;;;;;;5041344;28;4589;-51
2023/06/16 02:42:57;;;;;;;;;;;;;;;;;;5041102;28;4472;-50
2023/06/16 02:45:23;;;;;;;;;;;;;;;;;;5047978;28;4941;-50
2023/06/16 02:47:48;;;;;;;;;;;;;;;;;;5039638;28;1464;-50
2023/06/16 02:50:13;;;;;;;;;;;;;;;;;;5034855;28;4368;-51
2023/06/16 02:52:41;;;;;;;;;;;;;;;;;;5038619;28;4784;-51
2023/06/16 02:55:07;;;;;;;;;;;;;;;;;;5043011;28;4985;-51
2023/06/16 02:57:32;;;;;;;;;;;;;;;;;;5041696;28;4490;-51
2023/06/16 02:59:58;;;;;;;;;;;;;;;;;;5040314;28;4457;-50
2023/06/16 03:02:24;;;;;;;;;;;;;;;;;;5044641;28;1384;-49
2023/06/16 03:04:50;;;;;;;;;;;;;;;;;;5029808;28;4997;-52
2023/06/16 03:07:17;;;;;;;;;;;;;;;;;;5043264;28;4512;-53
2023/06/16 03:09:42;;;;;;;;;;;;;;;;;;5041424;28;5392;-54
2023/06/16 03:12:07;;;;;;;;;;;;;;;;;;5035720;28;4626;-49
2023/06/16 03:14:33;;;;;;;;;;;;;;;;;;5038646;28;1388;-50
2023/06/16 03:17:00;;;;;;;;;;;;;;;;;;5039040;28;5302;-52
2023/06/16 03:19:25;;;;;;;;;;;;;;;;;;5031223;28;4563;-50
2023/06/16 03:21:50;;;;;;;;;;;;;;;;;;5037763;28;4446;-52
2023/06/16 03:24:18;;;;;;;;;;;;;;;;;;5039932;28;4621;-50
2023/06/16 03:26:44;;;;;;;;;;;;;;;;;;5044826;28;1377;-54
2023/06/16 03:29:10;;;;;;;;;;;;;;;;;;5040993;28;5021;-54
2023/06/16 03:31:35;;;;;;;;;;;;;;;;;;5035185;28;4592;-51
2023/06/16 03:34:00;;;;;;;;;;;;;;;;;;5039726;28;4867;-51
2023/06/16 03:36:26;;;;;;;;;;;;;;;;;;5034632;28;4524;-52
2023/06/16 03:38:51;;;;;;;;;;;;;;;;;;5042830;28;4515;-52
2023/06/16 03:41:16;;;;;;;;;;;;;;;;;;5043476;28;1087;-51
2023/06/16 03:43:41;;;;;;;;;;;;;;;;;;5037780;28;4462;-50
2023/06/16 03:46:07;;;;;;;;;;;;;;;;;;5035742;28;5405;-51
2023/06/16 03:48:32;;;;;;;;;;;;;;;;;;5039820;28;4511;-51
2023/06/16 03:50:58;;;;;;;;;;;;;;;;;;5036684;28;5390;-52
2023/06/16 03:53:23;;;;;;;;;;;;;;;;;;5034405;28;3146;-50
2023/06/16 03:55:48;;;;;;;;;;;;;;;;;;5047498;28;5247;-53
2023/06/16 03:58:15;;;;;;;;;;;;;;;;;;5036979;28;5120;-50
2023/06/16 04:00:40;;;;;;;;;;;;;;;;;;5041629;28;4639;-52
2023/06/16 04:03:07;;;;;;;;;;;;;;;;;;5037938;28;4558;-50
2023/06/16 04:05:33;;;;;;;;;;;;;;;;;;5042550;28;3012;-49
2023/06/16 04:07:58;;;;;;;;;;;;;;;;;;5038746;28;5007;-50
2023/06/16 04:10:23;;;;;;;;;;;;;;;;;;5038235;28;4971;-50
2023/06/16 04:12:49;;;;;;;;;;;;;;;;;;5037894;28;4965;-51
2023/06/16 04:15:14;;;;;;;;;;;;;;;;;;5046945;28;4558;-48
2023/06/16 04:17:40;;;;;;;;;;;;;;;;;;5042440;28;4713;-52
2023/06/16 04:20:09;;;;;;;;;;;;;;;;;;5041306;28;4736;-53
2023/06/16 04:22:35;;;;;;;;;;;;;;;;;;5040317;28;4472;-55
2023/06/16 04:25:00;;;;;;;;;;;;;;;;;;5019612;28;4567;-54
2023/06/16 04:27:28;;;;;;;;;;;;;;;;;;5029164;28;4477;-52
2023/06/16 04:29:54;;;;;;;;;;;;;;;;;;5038294;28;4520;-52
2023/06/16 04:32:20;;;;;;;;;;;;;;;;;;5046512;28;3128;-52
2023/06/16 04:34:45;;;;;;;;;;;;;;;;;;5038991;28;5545;-51
2023/06/16 04:37:11;;;;;;;;;;;;;;;;;;5042957;28;5099;-52
2023/06/16 04:39:37;;;;;;;;;;;;;;;;;;5041648;28;5034;-51
2023/06/16 04:42:04;;;;;;;;;;;;;;;;;;5044312;28;5030;-49
2023/06/16 04:44:29;;;;;;;;;;;;;;;;;;5044452;28;2998;-51
2023/06/16 04:46:56;;;;;;;;;;;;;;;;;;5040923;28;4956;-52
2023/06/16 04:49:21;;;;;;;;;;;;;;;;;;5045656;28;4536;-52
2023/06/16 04:51:46;;;;;;;;;;;;;;;;;;5045160;28;4877;-53
2023/06/16 04:54:12;;;;;;;;;;;;;;;;;;5038996;28;4508;-50
2023/06/16 04:56:37;;;;;;;;;;;;;;;;;;5043422;28;3230;-51
2023/06/16 04:59:02;;;;;;;;;;;;;;;;;;5045937;28;5016;-50
2023/06/16 05:01:28;;;;;;;;;;;;;;;;;;5039104;28;4650;-55
2023/06/16 05:03:54;;;;;;;;;;;;;;;;;;5035028;28;4497;-50
2023/06/16 05:06:20;;;;;;;;;;;;;;;;;;5041307;28;4492;-53
2023/06/16 05:08:46;;;;;;;;;;;;;;;;;;5040755;28;3350;-53
2023/06/16 05:11:12;;;;;;;;;;;;;;;;;;5041481;28;4977;-51
2023/06/16 05:13:37;;;;;;;;;;;;;;;;;;5048564;28;4492;-52
2023/06/16 05:16:02;;;;;;;;;;;;;;;;;;5046556;28;4477;-54
2023/06/16 05:18:27;;;;;;;;;;;;;;;;;;5042484;28;4666;-49
2023/06/16 05:20:53;;;;;;;;;;;;;;;;;;5043502;28;4673;-50
2023/06/16 05:23:18;;;;;;;;;;;;;;;;;;5048125;28;1460;-52
2023/06/16 05:25:45;;;;;;;;;;;;;;;;;;5042015;28;5069;-50
2023/06/16 05:28:10;;;;;;;;;;;;;;;;;;5036894;28;4678;-49
2023/06/16 05:30:35;;;;;;;;;;;;;;;;;;5039233;28;4552;-52
2023/06/16 05:33:00;;;;;;;;;;;;;;;;;;5036567;28;4494;-55
2023/06/16 05:35:26;;;;;;;;;;;;;;;;;;5044589;28;1391;-53
2023/06/16 05:37:51;;;;;;;;;;;;;;;;;;5042482;28;4603;-52
2023/06/16 05:40:16;;;;;;;;;;;;;;;;;;5040486;28;4451;-51
2023/06/16 05:42:42;;;;;;;;;;;;;;;;;;5045514;28;4464;-53
2023/06/16 05:45:07;;;;;;;;;;;;;;;;;;5042799;28;4470;-52
2023/06/16 05:47:32;;;;;;;;;;;;;;;;;;5046896;28;1655;-49
2023/06/16 05:49:59;;;;;;;;;;;;;;;;;;5042665;28;4707;-53
2023/06/16 05:52:24;;;;;;;;;;;;;;;;;;5044346;28;4630;-51
2023/06/16 05:54:49;;;;;;;;;;;;;;;;;;5044420;28;4940;-52
2023/06/16 05:57:15;;;;;;;;;;;;;;;;;;5046321;28;4543;-53
2023/06/16 05:59:40;;;;;;;;;;;;;;;;;;5047398;28;1399;-50
2023/06/16 06:02:05;;;;;;;;;;;;;;;;;;5040052;28;4433;-48
2023/06/16 06:04:31;;;;;;;;;;;;;;;;;;5044977;28;5001;-49
2023/06/16 06:06:56;;;;;;;;;;;;;;;;;;5037901;28;5020;-51
2023/06/16 06:09:22;;;;;;;;;;;;;;;;;;5042511;28;4453;-51
2023/06/16 06:11:47;;;;;;;;;;;;;;;;;;5036122;28;3214;-54
2023/06/16 06:14:12;;;;;;;;;;;;;;;;;;5042565;28;4498;-51
2023/06/16 06:16:38;;;;;;;;;;;;;;;;;;5041859;28;4519;-54
2023/06/16 06:19:03;;;;;;;;;;;;;;;;;;5035073;28;4650;-51
2023/06/16 06:21:28;;;;;;;;;;;;;;;;;;5036653;28;4503;-53
2023/06/16 06:23:53;;;;;;;;;;;;;;;;;;5035527;28;4821;-52
2023/06/16 06:26:19;;;;;;;;;;;;;;;;;;5053591;28;3379;-52
2023/06/16 06:28:44;;;;;;;;;;;;;;;;;;5041219;28;4597;-53
2023/06/16 06:31:10;;;;;;;;;;;;;;;;;;5040680;28;5076;-51
2023/06/16 06:33:35;;;;;;;;;;;;;;;;;;5042061;28;5140;-52
2023/06/16 06:36:00;;;;;;;;;;;;;;;;;;5037160;28;4489;-58
2023/06/16 06:38:26;;;;;;;;;;;;;;;;;;5041431;28;3275;-48
2023/06/16 06:40:51;;;;;;;;;;;;;;;;;;5037046;28;4468;-50
2023/06/16 06:43:17;;;;;;;;;;;;;;;;;;5036628;28;4552;-51
2023/06/16 06:45:43;;;;;;;;;;;;;;;;;;5036295;28;4885;-51
2023/06/16 06:48:08;;;;;;;;;;;;;;;;;;5038062;28;4487;-51
2023/06/16 06:50:33;;;;;;;;;;;;;;;;;;5038185;28;3563;-50
2023/06/16 06:52:59;;;;;;;;;;;;;;;;;;5042053;28;4946;-51
2023/06/16 06:55:24;;;;;;;;;;;;;;;;;;5041631;28;4477;-55
2023/06/16 06:57:50;;;;;;;;;;;;;;;;;;5035861;28;4973;-50
2023/06/16 07:00:16;;;;;;;;;;;;;;;;;;5040238;28;4558;-49
2023/06/16 07:02:41;;;;;;;;;;;;;;;;;;5037247;28;3270;-51
2023/06/16 07:05:08;;;;;;;;;;;;;;;;;;5039808;28;4499;-48
2023/06/16 07:07:33;;;;;;;;;;;;;;;;;;5037993;28;4501;-53
2023/06/16 07:09:58;;;;;;;;;;;;;;;;;;5038601;28;4520;-51
2023/06/16 07:12:23;;;;;;;;;;;;;;;;;;5040498;28;4699;-50
2023/06/16 07:14:49;;;;;;;;;;;;;;;;;;5039282;28;3258;-56
2023/06/16 07:17:14;;;;;;;;;;;;;;;;;;5037745;28;4736;-55
2023/06/16 07:19:39;;;;;;;;;;;;;;;;;;5040127;28;4637;-54
2023/06/16 07:22:08;;;;;;;;;;;;;;;;;;5034572;28;4520;-51
2023/06/16 07:24:33;;;;;;;;;;;;;;;;;;5032330;28;4484;-52
2023/06/16 07:27:01;;;;;;;;;;;;;;;;;;5041424;28;4492;-51
2023/06/16 07:29:27;;;;;;;;;;;;;;;;;;5035679;28;2999;-54
2023/06/16 07:31:52;;;;;;;;;;;;;;;;;;5028840;28;4799;-55
2023/06/16 07:34:18;;;;;;;;;;;;;;;;;;5037042;28;4499;-54
2023/06/16 07:36:43;;;;;;;;;;;;;;;;;;5044738;28;5012;-53
2023/06/16 07:39:09;;;;;;;;;;;;;;;;;;5046493;28;5126;-53
2023/06/16 07:41:34;;;;;;;;;;;;;;;;;;5042782;28;1148;-52
2023/06/16 07:43:59;;;;;;;;;;;;;;;;;;5045166;28;4564;-53
2023/06/16 07:46:24;;;;;;;;;;;;;;;;;;5039247;28;4639;-51
2023/06/16 07:48:50;;;;;;;;;;;;;;;;;;5046266;28;5100;-57
2023/06/16 07:51:15;;;;;;;;;;;;;;;;;;5033760;28;4964;-54
2023/06/16 07:53:42;;;;;;;;;;;;;;;;;;5045874;28;3407;-56
2023/06/16 07:56:07;;;;;;;;;;;;;;;;;;5038056;28;5136;-57
2023/06/16 07:58:35;;;;;;;;;;;;;;;;;;5044702;28;5071;-57
2023/06/16 08:01:01;;;;;;;;;;;;;;;;;;5046091;28;4866;-56
2023/06/16 08:03:26;;;;;;;;;;;;;;;;;;5046048;28;4537;-57
2023/06/16 08:05:52;;;;;;;;;;;;;;;;;;5039217;28;4421;-55
2023/06/16 08:08:18;;;;;;;;;;;;;;;;;;5049334;28;3414;-56
2023/06/16 08:10:44;;;;;;;;;;;;;;;;;;5036045;28;4606;-57
2023/06/16 08:13:09;;;;;;;;;;;;;;;;;;5039115;28;5297;-57
2023/06/16 08:15:34;;;;;;;;;;;;;;;;;;5043517;28;5468;-69
2023/06/16 08:18:00;;;;;;;;;;;;;;;;;;5064038;28;4599;-61
2023/06/16 08:20:25;;;;;;;;;;;;;;;;;;5071908;28;3267;-60
2023/06/16 08:22:51;;;;;;;;;;;;;;;;;;5045793;28;4463;-58
2023/06/16 08:25:16;;;;;;;;;;;;;;;;;;5040523;28;4991;-52
2023/06/16 08:27:42;;;;;;;;;;;;;;;;;;5038054;28;4483;-53
2023/06/16 08:30:09;;;;;;;;;;;;;;;;;;5057244;28;4676;-57
2023/06/16 08:32:34;;;;;;;;;;;;;;;;;;5023953;28;3466;-55
2023/06/16 08:34:59;;;;;;;;;;;;;;;;;;5033906;28;4639;-56
2023/06/16 08:37:25;;;;;;;;;;;;;;;;;;5033944;28;4538;-54
2023/06/16 08:39:51;;;;;;;;;;;;;;;;;;5042839;28;5173;-56
2023/06/16 08:42:16;;;;;;;;;;;;;;;;;;5037970;28;4685;-56
2023/06/16 08:44:41;;;;;;;;;;;;;;;;;;5036247;28;3137;-55
2023/06/16 08:47:08;;;;;;;;;;;;;;;;;;5036208;28;4597;-57
2023/06/16 08:49:33;;;;;;;;;;;;;;;;;;5034806;28;4602;-55
2023/06/16 08:51:58;;;;;;;;;;;;;;;;;;5042091;28;4577;-56
2023/06/16 08:54:24;;;;;;;;;;;;;;;;;;5041098;28;5122;-56
2023/06/16 08:56:51;;;;;;;;;;;;;;;;;;5032781;28;4481;-56
2023/06/16 08:59:17;;;;;;;;;;;;;;;;;;5045587;28;1152;-56
2023/06/16 09:01:42;;;;;;;;;;;;;;;;;;5048024;28;4882;-55
2023/06/16 09:04:12;;;;;;;;;;;;;;;;;;5049838;28;4911;-56
2023/06/16 09:06:38;;;;;;;;;;;;;;;;;;5047228;28;4575;-55
2023/06/16 09:09:03;;;;;;;;;;;;;;;;;;5038502;28;4623;-56
2023/06/16 09:11:28;;;;;;;;;;;;;;;;;;5041999;28;1080;-56
2023/06/16 09:13:55;;;;;;;;;;;;;;;;;;5049255;28;4812;-56
2023/06/16 09:16:21;;;;;;;;;;;;;;;;;;5042175;28;4622;-56
2023/06/16 09:18:47;;;;;;;;;;;;;;;;;;5047532;28;4837;-53
2023/06/16 09:21:17;;;;;;;;;;;;;;;;;;5043815;28;4675;-56
2023/06/16 09:23:42;;;;;;;;;;;;;;;;;;5028021;28;1643;-57
2023/06/16 09:26:12;;;;;;;;;;;;;;;;;;5041911;28;4584;-55
2023/06/16 09:28:37;;;;;;;;;;;;;;;;;;5039876;28;5065;-55
2023/06/16 09:31:11;;;;;;;;;;;;;;;;;;5053651;28;4749;-56
2023/06/16 09:33:37;;;;;;;;;;;;;;;;;;5055321;28;4550;-54
2023/06/16 09:36:02;;;;;;;;;;;;;;;;;;5049405;28;4629;-56
2023/06/16 09:38:31;;;;;;;;;;;;;;;;;;5039570;28;2060;-55
2023/06/16 09:41:06;;;;;;;;;;;;;;;;;;5049139;28;4803;-54
2023/06/16 09:43:31;;;;;;;;;;;;;;;;;;5048705;28;5572;-56
2023/06/16 09:45:57;;;;;;;;;;;;;;;;;;5044236;28;4660;-55
2023/06/16 09:48:23;;;;;;;;;;;;;;;;;;5043100;28;4475;-55
2023/06/16 09:50:48;;;;;;;;;;;;;;;;;;5047733;28;1412;-56
2023/06/16 09:53:17;;;;;;;;;;;;;;;;;;5037644;28;4565;-55
2023/06/16 09:55:42;;;;;;;;;;;;;;;;;;5049405;28;4457;-55
2023/06/16 09:58:07;;;;;;;;;;;;;;;;;;5046222;28;4624;-55
2023/06/16 10:00:33;;;;;;;;;;;;;;;;;;5050330;28;4442;-54
2023/06/16 10:02:58;;;;;;;;;;;;;;;;;;5046841;28;4756;-56
2023/06/16 10:05:24;;;;;;;;;;;;;;;;;;5047074;28;1124;-54
2023/06/16 10:07:53;;;;;;;;;;;;;;;;;;5055857;28;4481;-55
2023/06/16 10:10:19;;;;;;;;;;;;;;;;;;5049162;28;4452;-54
2023/06/16 10:12:48;;;;;;;;;;;;;;;;;;5043623;28;4488;-57
2023/06/16 10:15:31;;;;;;;;;;;;;;;;;;5048635;28;5077;-56
2023/06/16 10:18:03;;;;;;;;;;;;;;;;;;5039579;28;4816;-56
2023/06/16 10:20:30;;;;;;;;;;;;;;;;;;5041644;28;1101;-54
2023/06/16 10:22:55;;;;;;;;;;;;;;;;;;5047002;28;4618;-55
2023/06/16 10:25:21;;;;;;;;;;;;;;;;;;5046003;28;4612;-55
2023/06/16 10:27:46;;;;;;;;;;;;;;;;;;5048025;28;4839;-55
2023/06/16 10:30:16;;;;;;;;;;;;;;;;;;5044125;28;4814;-56
2023/06/16 10:32:45;;;;;;;;;;;;;;;;;;5048903;28;1395;-54
2023/06/16 10:35:10;;;;;;;;;;;;;;;;;;5047203;28;4424;-56
2023/06/16 10:37:36;;;;;;;;;;;;;;;;;;5046488;28;5269;-54
2023/06/16 10:40:05;;;;;;;;;;;;;;;;;;5047282;28;5074;-55
2023/06/16 10:42:33;;;;;;;;;;;;;;;;;;5048135;28;4642;-55
2023/06/16 10:44:59;;;;;;;;;;;;;;;;;;5044986;28;4611;-55
2023/06/16 10:47:24;;;;;;;;;;;;;;;;;;5043825;28;1578;-55
2023/06/16 10:49:57;;;;;;;;;;;;;;;;;;5043775;28;4426;-55
2023/06/16 10:52:28;;;;;;;;;;;;;;;;;;5043879;28;4714;-56
2023/06/16 10:54:55;;;;;;;;;;;;;;;;;;5042752;28;4668;-53
2023/06/16 10:57:20;;;;;;;;;;;;;;;;;;5044285;28;4481;-56
2023/06/16 11:00:11;;;;;;;;;;;;;;;;;;5046028;28;1213;-53
2023/06/16 11:02:57;;;;;;;;;;;;;;;;;;5039802;28;5360;-56
2023/06/16 11:05:22;;;;;;;;;;;;;;;;;;5046901;28;5085;-56
2023/06/16 11:08:05;;;;;;;;;;;;;;;;;;5046926;28;5126;-55
2023/06/16 11:10:31;;;;;;;;;;;;;;;;;;5047468;28;4607;-54
2023/06/16 11:12:56;;;;;;;;;;;;;;;;;;5045414;28;4459;-55
2023/06/16 11:15:23;;;;;;;;;;;;;;;;;;5047100;28;5102;-56
2023/06/16 11:17:49;;;;;;;;;;;;;;;;;;5039357;28;4599;-55
2023/06/16 11:20:15;;;;;;;;;;;;;;;;;;5043020;28;5035;-56
2023/06/16 11:22:42;;;;;;;;;;;;;;;;;;5042030;28;5298;-55
2023/06/16 11:25:08;;;;;;;;;;;;;;;;;;5038368;28;4859;-55
2023/06/16 11:27:33;;;;;;;;;;;;;;;;;;5038368;28;4472;-54
2023/06/16 11:29:59;;;;;;;;;;;;;;;;;;5042801;28;4510;-56
2023/06/16 11:32:24;;;;;;;;;;;;;;;;;;5037191;28;1186;-58
2023/06/16 11:34:53;;;;;;;;;;;;;;;;;;5042523;28;4478;-58
2023/06/16 11:37:19;;;;;;;;;;;;;;;;;;5062341;28;5482;-56
2023/06/16 11:39:44;;;;;;;;;;;;;;;;;;5041405;28;5118;-57
2023/06/16 11:42:13;;;;;;;;;;;;;;;;;;5038455;28;4641;-58
2023/06/16 11:44:38;;;;;;;;;;;;;;;;;;5036438;28;1019;-56
2023/06/16 11:47:03;;;;;;;;;;;;;;;;;;5039995;28;4615;-56
2023/06/16 11:49:29;;;;;;;;;;;;;;;;;;5045671;28;5176;-60
2023/06/16 11:51:54;;;;;;;;;;;;;;;;;;5045097;28;4449;-55
2023/06/16 11:54:20;;;;;;;;;;;;;;;;;;5042895;28;4509;-56
2023/06/16 11:56:48;;;;;;;;;;;;;;;;;;5044001;28;1326;-58
2023/06/16 11:59:13;;;;;;;;;;;;;;;;;;5020715;28;4422;-56
2023/06/16 12:01:39;;;;;;;;;;;;;;;;;;5041724;28;4994;-55
2023/06/16 12:04:04;;;;;;;;;;;;;;;;;;5025108;28;4504;-55
2023/06/16 12:06:30;;;;;;;;;;;;;;;;;;5024859;28;4465;-57
2023/06/16 12:08:55;;;;;;;;;;;;;;;;;;5026273;28;5051;-55
2023/06/16 12:11:23;;;;;;;;;;;;;;;;;;5040544;28;1160;-57
2023/06/16 12:13:49;;;;;;;;;;;;;;;;;;5037750;28;4521;-55
2023/06/16 12:16:14;;;;;;;;;;;;;;;;;;5043893;28;4600;-57
2023/06/16 12:18:40;;;;;;;;;;;;;;;;;;5046285;28;5090;-56
2023/06/16 12:21:34;;;;;;;;;;;;;;;;;;5040026;28;5012;-55
2023/06/16 12:24:00;;;;;;;;;;;;;;;;;;5031034;28;4506;-56
2023/06/16 12:26:28;;;;;;;;;;;;;;;;;;5042900;28;2034;-54
2023/06/16 12:28:54;;;;;;;;;;;;;;;;;;5038239;28;4434;-54
2023/06/16 12:31:20;;;;;;;;;;;;;;;;;;5039577;28;5228;-56
2023/06/16 12:33:49;;;;;;;;;;;;;;;;;;5044204;28;4454;-54
2023/06/16 12:36:14;;;;;;;;;;;;;;;;;;5041593;28;4485;-55
2023/06/16 12:38:40;;;;;;;;;;;;;;;;;;5042813;28;1976;-55
2023/06/16 12:41:10;;;;;;;;;;;;;;;;;;5041305;28;5187;-55
2023/06/16 12:43:36;;;;;;;;;;;;;;;;;;5044782;28;4454;-53
2023/06/16 12:46:01;;;;;;;;;;;;;;;;;;5046829;28;4890;-54
2023/06/16 12:48:27;;;;;;;;;;;;;;;;;;5045019;28;4468;-55
2023/06/16 12:50:53;;;;;;;;;;;;;;;;;;5049298;28;4464;-54
2023/06/16 12:53:18;;;;;;;;;;;;;;;;;;5051081;28;1265;-53
2023/06/16 12:55:43;;;;;;;;;;;;;;;;;;5046694;28;4472;-54
2023/06/16 12:58:09;;;;;;;;;;;;;;;;;;5049257;28;4609;-56
2023/06/16 13:00:34;;;;;;;;;;;;;;;;;;5050075;28;4429;-54
2023/06/16 13:02:59;;;;;;;;;;;;;;;;;;5048199;28;4484;-56
2023/06/16 13:05:25;;;;;;;;;;;;;;;;;;5046402;28;1036;-55
2023/06/16 13:07:51;;;;;;;;;;;;;;;;;;5047753;28;4445;-56
2023/06/16 13:10:16;;;;;;;;;;;;;;;;;;5046629;28;4559;-56
2023/06/16 13:12:41;;;;;;;;;;;;;;;;;;5047228;28;4921;-55
2023/06/16 13:15:07;;;;;;;;;;;;;;;;;;5049906;28;4472;-55
2023/06/16 13:17:32;;;;;;;;;;;;;;;;;;5046512;28;1909;-56
2023/06/16 13:19:57;;;;;;;;;;;;;;;;;;5049594;28;5033;-54
2023/06/16 13:22:23;;;;;;;;;;;;;;;;;;5047624;28;4629;-54
2023/06/16 13:24:49;;;;;;;;;;;;;;;;;;5040782;28;4950;-53
2023/06/16 13:27:15;;;;;;;;;;;;;;;;;;5049441;28;4593;-57
2023/06/16 13:29:40;;;;;;;;;;;;;;;;;;5050231;28;1135;-55
2023/06/16 13:32:05;;;;;;;;;;;;;;;;;;5049446;28;4778;-57
2023/06/16 13:34:31;;;;;;;;;;;;;;;;;;5047312;28;5060;-56
2023/06/16 13:36:56;;;;;;;;;;;;;;;;;;5043726;28;4865;-57
2023/06/16 13:39:21;;;;;;;;;;;;;;;;;;5049107;28;4520;-55
2023/06/16 13:41:47;;;;;;;;;;;;;;;;;;5049784;28;1225;-57
2023/06/16 13:44:12;;;;;;;;;;;;;;;;;;5049251;28;5033;-56
2023/06/16 13:46:37;;;;;;;;;;;;;;;;;;5048599;28;4981;-57
2023/06/16 13:49:03;;;;;;;;;;;;;;;;;;5046757;28;4489;-57
2023/06/16 13:51:28;;;;;;;;;;;;;;;;;;5036817;28;5032;-55
2023/06/16 13:53:53;;;;;;;;;;;;;;;;;;5049021;28;5566;-60
2023/06/16 13:56:20;;;;;;;;;;;;;;;;;;5044239;28;1245;-58
2023/06/16 13:58:45;;;;;;;;;;;;;;;;;;5048576;28;5213;-58
2023/06/16 14:01:10;;;;;;;;;;;;;;;;;;5030468;28;4486;-55
2023/06/16 14:03:35;;;;;;;;;;;;;;;;;;5047781;28;5058;-55
2023/06/16 14:06:01;;;;;;;;;;;;;;;;;;5039020;28;4654;-54
2023/06/16 14:08:26;;;;;;;;;;;;;;;;;;5044838;28;1117;-55
2023/06/16 14:10:52;;;;;;;;;;;;;;;;;;5049013;28;4441;-55
2023/06/16 14:13:17;;;;;;;;;;;;;;;;;;5042816;28;5310;-55
2023/06/16 14:15:43;;;;;;;;;;;;;;;;;;5045364;28;4477;-54
2023/06/16 14:18:08;;;;;;;;;;;;;;;;;;5043069;28;4819;-55
2023/06/16 14:20:34;;;;;;;;;;;;;;;;;;5041644;28;2366;-55
2023/06/16 14:22:59;;;;;;;;;;;;;;;;;;5048370;28;5583;-53
2023/06/16 14:25:24;;;;;;;;;;;;;;;;;;5044308;28;4960;-55
2023/06/16 14:27:50;;;;;;;;;;;;;;;;;;5048036;28;5007;-56
2023/06/16 14:30:15;;;;;;;;;;;;;;;;;;5042685;28;4466;-55
2023/06/16 14:32:41;;;;;;;;;;;;;;;;;;5045491;28;1109;-56
2023/06/16 14:35:06;;;;;;;;;;;;;;;;;;5047073;28;4905;-55
2023/06/16 14:37:31;;;;;;;;;;;;;;;;;;5048005;28;4479;-57
2023/06/16 14:39:57;;;;;;;;;;;;;;;;;;5048444;28;4497;-54
2023/06/16 14:42:22;;;;;;;;;;;;;;;;;;5049403;28;1280;-54
2023/06/16 14:44:47;;;;;;;;;;;;;;;;;;5049629;28;1155;-54
2023/06/16 14:47:13;;;;;;;;;;;;;;;;;;5040870;28;1530;-55
2023/06/16 14:49:38;;;;;;;;;;;;;;;;;;5048753;28;1237;-56
2023/06/16 14:52:04;;;;;;;;;;;;;;;;;;5049721;28;1103;-55
2023/06/16 14:54:30;;;;;;;;;;;;;;;;;;5048506;28;1077;-54
2023/06/16 14:56:55;;;;;;;;;;;;;;;;;;5048190;28;1532;-55
2023/06/16 14:59:21;;;;;;;;;;;;;;;;;;5045970;28;2010;-56
2023/06/16 15:01:46;;;;;;;;;;;;;;;;;;5049129;28;947;-55
2023/06/16 15:04:12;;;;;;;;;;;;;;;;;;5048973;28;1120;-54
2023/06/16 15:06:37;;;;;;;;;;;;;;;;;;5047795;28;1167;-54
2023/06/16 15:09:02;;;;;;;;;;;;;;;;;;5048971;28;1131;-55
2023/06/16 15:11:28;;;;;;;;;;;;;;;;;;5048522;28;1164;-54
2023/06/16 15:13:57;;;;;;;;;;;;;;;;;;5048603;28;1120;-55
2023/06/16 15:16:22;;;;;;;;;;;;;;;;;;5043829;28;1582;-54
2023/06/16 15:18:47;;;;;;;;;;;;;;;;;;5039688;28;1914;-55
2023/06/16 15:21:12;;;;;;;;;;;;;;;;;;5049856;28;1150;-54
2023/06/16 15:23:38;;;;;;;;;;;;;;;;;;5048523;28;1100;-54
2023/06/16 15:26:03;;;;;;;;;;;;;;;;;;5048145;28;1131;-54
2023/06/16 15:28:28;;;;;;;;;;;;;;;;;;5048449;28;1296;-56
2023/06/16 15:30:54;;;;;;;;;;;;;;;;;;5048089;28;1100;-55
2023/06/16 15:33:19;;;;;;;;;;;;;;;;;;5048214;28;1316;-55
2023/06/16 15:35:44;;;;;;;;;;;;;;;;;;5048443;28;1227;-56
2023/06/16 15:38:09;;;;;;;;;;;;;;;;;;5048569;28;1967;-54
2023/06/16 15:40:35;;;;;;;;;;;;;;;;;;5048323;28;1115;-56
2023/06/16 15:43:03;;;;;;;;;;;;;;;;;;5047906;28;1037;-53
2023/06/16 15:45:29;;;;;;;;;;;;;;;;;;5047965;28;1160;-56
2023/06/16 15:47:54;;;;;;;;;;;;;;;;;;5033735;28;1745;-56
2023/06/16 15:50:19;;;;;;;;;;;;;;;;;;5048376;28;1168;-54
2023/06/16 15:52:44;;;;;;;;;;;;;;;;;;5048045;28;1317;-56
2023/06/16 15:55:10;;;;;;;;;;;;;;;;;;5048206;28;1108;-55
2023/06/16 15:57:35;;;;;;;;;;;;;;;;;;5046050;28;1975;-57
2023/06/16 16:00:01;;;;;;;;;;;;;;;;;;5048284;28;1159;-54
2023/06/16 16:02:26;;;;;;;;;;;;;;;;;;5048212;28;1171;-56
2023/06/16 16:04:51;;;;;;;;;;;;;;;;;;5048232;28;1151;-55
2023/06/16 16:07:16;;;;;;;;;;;;;;;;;;5047849;28;1068;-55
2023/06/16 16:09:42;;;;;;;;;;;;;;;;;;5047824;28;1151;-56
2023/06/16 16:12:07;;;;;;;;;;;;;;;;;;5047446;28;1151;-54
2023/06/16 16:14:32;;;;;;;;;;;;;;;;;;5047881;28;1155;-54
2023/06/16 16:16:58;;;;;;;;;;;;;;;;;;5038510;28;1536;-54
2023/06/16 16:19:23;;;;;;;;;;;;;;;;;;5045111;28;1910;-54
2023/06/16 16:21:48;;;;;;;;;;;;;;;;;;5047857;28;957;-56
2023/06/16 16:24:14;;;;;;;;;;;;;;;;;;5048079;28;1095;-53
2023/06/16 16:26:39;;;;;;;;;;;;;;;;;;5047808;28;1111;-56
2023/06/16 16:29:05;;;;;;;;;;;;;;;;;;5047860;28;1166;-56
2023/06/16 16:31:31;;;;;;;;;;;;;;;;;;5048062;28;1112;-53
2023/06/16 16:33:56;;;;;;;;;;;;;;;;;;5040629;28;1669;-56
2023/06/16 16:36:21;;;;;;;;;;;;;;;;;;5038855;28;1160;-55
2023/06/16 16:38:46;;;;;;;;;;;;;;;;;;5047444;28;1981;-55
2023/06/16 16:41:12;;;;;;;;;;;;;;;;;;5047460;28;1139;-54
2023/06/16 16:43:37;;;;;;;;;;;;;;;;;;5047784;28;1405;-54
2023/06/16 16:46:02;;;;;;;;;;;;;;;;;;5045127;28;1559;-53
2023/06/16 16:48:27;;;;;;;;;;;;;;;;;;5035387;28;1108;-55
2023/06/16 16:50:54;;;;;;;;;;;;;;;;;;5047506;28;1056;-54
2023/06/16 16:53:20;;;;;;;;;;;;;;;;;;5047626;28;1155;-56
2023/06/16 16:55:45;;;;;;;;;;;;;;;;;;5047262;28;1269;-55